createdAt,value
2023-01-27T00:01:05.014Z,85.61
2023-01-27T00:03:31.837Z,86.44
2023-01-27T00:06:01.417Z,86.31
2023-01-27T00:08:29.709Z,86.61
2023-01-27T00:11:13.790Z,86.57
2023-01-27T00:13:40.549Z,86.49
2023-01-27T00:16:07.539Z,86.77
2023-01-27T00:18:34.206Z,86.66
2023-01-27T00:21:14.787Z,87.22
2023-01-27T00:23:59.715Z,87.51
2023-01-27T00:26:26.425Z,87.59
2023-01-27T00:28:53.190Z,87.31
2023-01-27T00:31:38.970Z,87.37
2023-01-27T00:34:09.594Z,87.48
2023-01-27T00:36:41.574Z,87.27
2023-01-27T00:39:10.041Z,87.27
2023-01-27T00:41:37.226Z,87.45
2023-01-27T00:44:08.848Z,87.08
2023-01-27T00:46:35.662Z,87.54
2023-01-27T00:49:06.048Z,87.15
2023-01-27T00:51:32.743Z,87.65
2023-01-27T00:53:59.523Z,87.39
2023-01-27T00:56:31.342Z,87.64
2023-01-27T00:58:58.197Z,87.46
2023-01-27T01:01:25.048Z,87.76
2023-01-27T01:03:51.818Z,87.73
2023-01-27T01:06:20.443Z,87.61
2023-01-27T01:08:47.309Z,87.40
2023-01-27T01:11:17.096Z,87.93
2023-01-27T01:13:45.408Z,87.80
2023-01-27T01:16:14.270Z,87.98
2023-01-27T01:18:41.979Z,88.00
2023-01-27T01:21:08.887Z,87.52
2023-01-27T01:23:39.247Z,88.17
2023-01-27T01:26:06.079Z,88.36
2023-01-27T01:28:33.632Z,88.25
2023-01-27T01:31:08.385Z,87.99
2023-01-27T01:33:36.495Z,87.85
2023-01-27T01:38:39.091Z,88.40
2023-01-27T01:41:07.254Z,88.41
2023-01-27T01:43:35.318Z,88.61
2023-01-27T01:46:03.088Z,88.85
2023-01-27T01:48:42.700Z,88.23
2023-01-27T01:51:13.830Z,87.86
2023-01-27T01:53:51.081Z,86.76
2023-01-27T01:56:23.539Z,86.53
2023-01-27T01:58:51.306Z,86.50
2023-01-27T02:01:19.409Z,86.55
2023-01-27T02:03:51.414Z,86.53
2023-01-27T02:06:18.450Z,86.61
2023-01-27T02:08:48.562Z,86.67
2023-01-27T02:11:17.833Z,86.88
2023-01-27T02:13:45.328Z,86.08
2023-01-27T02:16:14.175Z,86.70
2023-01-27T02:18:41.969Z,86.52
2023-01-27T02:21:09.203Z,86.44
2023-01-27T02:23:38.782Z,86.42
2023-01-27T02:26:12.878Z,86.40
2023-01-27T02:28:39.565Z,86.17
2023-01-27T02:31:06.420Z,86.25
2023-01-27T02:33:33.682Z,86.21
2023-01-27T02:36:09.046Z,86.69
2023-01-27T02:38:48.423Z,86.83
2023-01-27T02:41:29.998Z,86.60
2023-01-27T02:43:57.115Z,86.95
2023-01-27T02:46:24.274Z,86.78
2023-01-27T02:48:51.031Z,86.27
2023-01-27T02:51:18.157Z,86.41
2023-01-27T02:53:46.265Z,86.85
2023-01-27T02:56:14.860Z,87.07
2023-01-27T02:58:41.673Z,86.60
2023-01-27T03:01:09.919Z,86.40
2023-01-27T03:03:36.670Z,86.60
2023-01-27T03:06:03.896Z,86.38
2023-01-27T03:08:30.536Z,86.99
2023-01-27T03:10:57.349Z,86.16
2023-01-27T03:13:25.224Z,86.69
2023-01-27T03:16:13.388Z,86.46
2023-01-27T03:18:38.827Z,86.70
2023-01-27T03:21:07.350Z,86.12
2023-01-27T03:23:34.486Z,86.34
2023-01-27T03:26:03.034Z,86.71
2023-01-27T03:28:29.935Z,86.67
2023-01-27T03:31:01.712Z,86.03
2023-01-27T03:33:28.656Z,85.41
2023-01-27T03:36:13.894Z,85.03
2023-01-27T03:38:59.339Z,84.69
2023-01-27T03:41:44.540Z,84.22
2023-01-27T03:46:38.160Z,84.78
2023-01-27T03:49:04.853Z,84.34
2023-01-27T03:51:31.509Z,85.36
2023-01-27T03:54:02.976Z,85.82
2023-01-27T03:56:29.945Z,86.54
2023-01-27T03:58:57.890Z,86.04
2023-01-27T04:01:25.256Z,86.79
2023-01-27T04:04:10.600Z,86.38
2023-01-27T04:06:56.606Z,86.23
2023-01-27T04:09:35.731Z,85.51
2023-01-27T04:12:06.891Z,85.43
2023-01-27T04:14:38.040Z,86.06
2023-01-27T04:17:13.866Z,85.94
2023-01-27T04:19:41.139Z,86.31
2023-01-27T04:22:09.728Z,86.09
2023-01-27T04:24:36.397Z,86.02
2023-01-27T04:27:10.040Z,85.67
2023-01-27T04:29:41.137Z,85.50
2023-01-27T04:32:10.288Z,85.22
2023-01-27T04:34:38.141Z,84.93
2023-01-27T04:37:07.082Z,84.56
2023-01-27T04:39:34.528Z,84.18
2023-01-27T04:42:01.578Z,84.20
2023-01-27T04:44:28.507Z,84.21
2023-01-27T04:46:55.266Z,84.40
2023-01-27T04:49:22.645Z,84.60
2023-01-27T04:51:50.142Z,83.61
2023-01-27T04:54:17.239Z,83.65
2023-01-27T04:56:59.889Z,83.64
2023-01-27T04:59:27.118Z,83.68
2023-01-27T05:01:54.412Z,83.94
2023-01-27T05:04:21.642Z,83.61
2023-01-27T05:06:48.376Z,83.46
2023-01-27T05:09:14.998Z,84.28
2023-01-27T05:11:41.942Z,83.78
2023-01-27T05:16:39.723Z,83.36
2023-01-27T05:19:07.411Z,82.74
2023-01-27T05:21:34.119Z,82.79
2023-01-27T05:24:02.338Z,82.13
2023-01-27T05:26:29.135Z,82.19
2023-01-27T05:28:58.465Z,82.05
2023-01-27T05:31:32.036Z,81.91
2023-01-27T05:34:01.619Z,82.73
2023-01-27T05:36:29.543Z,81.58
2023-01-27T05:38:58.688Z,82.45
2023-01-27T05:41:25.681Z,82.33
2023-01-27T05:43:56.679Z,81.85
2023-01-27T05:46:26.732Z,82.42
2023-01-27T05:48:56.033Z,81.92
2023-01-27T05:51:24.730Z,81.84
2023-01-27T05:53:52.588Z,81.53
2023-01-27T05:56:22.105Z,81.87
2023-01-27T05:58:53.343Z,81.55
2023-01-27T06:01:25.998Z,81.43
2023-01-27T06:03:53.017Z,81.54
2023-01-27T06:06:22.496Z,81.62
2023-01-27T06:08:50.350Z,81.75
2023-01-27T06:11:20.125Z,81.99
2023-01-27T06:13:47.969Z,82.29
2023-01-27T06:16:20.391Z,82.42
2023-01-27T06:18:48.430Z,82.83
2023-01-27T06:21:16.903Z,83.16
2023-01-27T06:23:47.315Z,83.79
2023-01-27T06:26:17.204Z,83.00
2023-01-27T06:28:44.259Z,83.56
2023-01-27T06:31:14.098Z,84.04
2023-01-27T06:33:41.113Z,84.50
2023-01-27T06:36:14.021Z,84.59
2023-01-27T06:38:41.135Z,84.94
2023-01-27T06:41:08.411Z,85.19
2023-01-27T06:43:41.134Z,85.11
2023-01-27T06:46:10.992Z,85.54
2023-01-27T06:48:38.422Z,85.36
2023-01-27T06:51:05.322Z,85.89
2023-01-27T06:53:32.972Z,86.17
2023-01-27T06:56:01.385Z,86.40
2023-01-27T06:58:28.916Z,86.56
2023-01-27T07:00:56.077Z,86.04
2023-01-27T07:03:23.073Z,86.04
2023-01-27T07:05:50.142Z,85.90
2023-01-27T07:08:17.457Z,85.62
2023-01-27T07:10:44.370Z,86.12
2023-01-27T07:13:13.927Z,85.92
2023-01-27T07:15:41.249Z,86.12
2023-01-27T07:18:08.158Z,85.94
2023-01-27T07:20:34.974Z,86.14
2023-01-27T07:23:05.280Z,85.50
2023-01-27T07:25:34.690Z,86.68
2023-01-27T07:28:02.671Z,86.62
2023-01-27T07:30:29.557Z,86.36
2023-01-27T07:32:56.393Z,86.33
2023-01-27T07:35:23.599Z,85.69
2023-01-27T07:37:50.476Z,86.08
2023-01-27T07:40:18.416Z,85.95
2023-01-27T07:42:45.077Z,85.44
2023-01-27T07:47:38.573Z,85.70
2023-01-27T07:50:05.889Z,86.03
2023-01-27T07:52:32.533Z,85.89
2023-01-27T07:54:59.268Z,86.26
2023-01-27T07:57:25.935Z,85.71
2023-01-27T07:59:56.860Z,85.76
2023-01-27T08:02:24.391Z,85.47
2023-01-27T08:04:53.548Z,85.71
2023-01-27T08:07:21.542Z,85.52
2023-01-27T08:09:48.637Z,85.99
2023-01-27T08:12:15.388Z,85.75
2023-01-27T08:14:42.096Z,85.27
2023-01-27T08:17:08.940Z,84.78
2023-01-27T08:19:35.724Z,85.44
2023-01-27T08:22:02.404Z,84.32
2023-01-27T08:24:29.193Z,84.77
2023-01-27T08:26:56.431Z,83.45
2023-01-27T08:29:23.271Z,82.96
2023-01-27T08:31:49.954Z,82.26
2023-01-27T08:34:17.242Z,82.61
2023-01-27T08:36:43.896Z,82.26
2023-01-27T08:39:11.237Z,81.59
2023-01-27T08:41:38.072Z,82.05
2023-01-27T08:44:04.893Z,82.98
2023-01-27T08:46:31.583Z,82.38
2023-01-27T08:48:58.269Z,82.80
2023-01-27T08:51:24.903Z,82.25
2023-01-27T08:53:51.675Z,82.20
2023-01-27T08:56:18.555Z,81.90
2023-01-27T08:58:47.623Z,82.37
2023-01-27T09:01:16.254Z,82.12
2023-01-27T09:03:43.471Z,82.53
2023-01-27T09:08:39.629Z,81.34
2023-01-27T09:11:13.999Z,81.04
2023-01-27T09:13:41.005Z,81.08
2023-01-27T09:16:08.105Z,81.70
2023-01-27T09:18:38.439Z,81.91
2023-01-27T09:21:09.202Z,80.91
2023-01-27T09:23:35.865Z,80.79
2023-01-27T09:26:02.528Z,79.69
2023-01-27T09:28:29.304Z,80.75
2023-01-27T09:31:00.289Z,79.17
2023-01-27T09:33:27.699Z,78.69
2023-01-27T09:36:05.558Z,78.47
2023-01-27T09:38:36.392Z,79.36
2023-01-27T09:41:13.084Z,79.85
2023-01-27T09:43:57.910Z,79.63
2023-01-27T09:46:39.538Z,79.45
2023-01-27T09:49:14.076Z,79.18
2023-01-27T09:51:52.032Z,78.54
2023-01-27T09:54:43.660Z,77.92
2023-01-27T09:57:13.097Z,78.18
2023-01-27T09:59:48.297Z,76.84
2023-01-27T10:02:15.288Z,76.98
2023-01-27T10:04:54.149Z,76.06
2023-01-27T10:07:48.894Z,75.24
2023-01-27T10:10:42.230Z,76.14
2023-01-27T10:13:14.082Z,75.79
2023-01-27T10:16:14.050Z,76.23
2023-01-27T10:19:14.178Z,74.69
2023-01-27T10:21:48.983Z,75.48
2023-01-27T10:24:32.855Z,74.31
2023-01-27T10:27:14.065Z,74.86
2023-01-27T10:30:05.836Z,74.06
2023-01-27T10:33:04.293Z,74.78
2023-01-27T10:35:45.934Z,74.71
2023-01-27T10:38:14.130Z,74.30
2023-01-27T10:40:50.489Z,74.60
2023-01-27T10:43:36.717Z,73.75
2023-01-27T10:46:14.033Z,72.33
2023-01-27T10:49:10.338Z,72.38
2023-01-27T10:51:43.709Z,73.82
2023-01-27T10:54:14.159Z,75.04
2023-01-27T10:56:49.781Z,74.06
2023-01-27T10:59:33.238Z,73.23
2023-01-27T11:02:13.171Z,73.33
2023-01-27T11:04:44.228Z,74.11
2023-01-27T11:07:13.110Z,73.38
2023-01-27T11:09:49.215Z,74.18
2023-01-27T11:12:16.436Z,74.67
2023-01-27T11:14:51.842Z,74.14
2023-01-27T11:17:59.852Z,75.14
2023-01-27T11:20:35.385Z,74.83
2023-01-27T11:25:52.987Z,74.79
2023-01-27T11:28:25.440Z,74.17
2023-01-27T11:33:58.604Z,74.64
2023-01-27T11:36:26.581Z,73.58
2023-01-27T11:39:01.763Z,73.75
2023-01-27T11:41:28.614Z,72.89
2023-01-27T11:43:55.331Z,73.16
2023-01-27T11:46:24.425Z,72.91
2023-01-27T11:48:57.796Z,73.57
2023-01-27T11:51:32.043Z,73.02
2023-01-27T11:54:14.234Z,73.12
2023-01-27T11:56:44.276Z,73.45
2023-01-27T11:59:14.133Z,74.58
2023-01-27T12:01:50.980Z,72.47
2023-01-27T12:04:39.260Z,73.32
2023-01-27T12:07:14.102Z,71.75
2023-01-27T12:09:42.197Z,70.93
2023-01-27T12:12:15.111Z,71.17
2023-01-27T12:14:54.214Z,70.21
2023-01-27T12:17:44.022Z,71.12
2023-01-27T12:20:13.540Z,71.44
2023-01-27T12:22:44.592Z,71.43
2023-01-27T12:25:14.193Z,69.20
2023-01-27T12:27:48.088Z,68.73
2023-01-27T12:30:40.841Z,65.24
2023-01-27T12:33:14.091Z,59.97
2023-01-27T12:35:40.880Z,53.66
2023-01-27T12:38:14.080Z,56.09
2023-01-27T12:40:45.030Z,53.05
2023-01-27T12:43:14.130Z,59.49
2023-01-27T12:45:43.502Z,57.26
2023-01-27T12:50:53.213Z,61.74
2023-01-27T12:53:30.494Z,64.20
2023-01-27T12:56:14.198Z,66.40
2023-01-27T12:58:55.554Z,66.48
2023-01-27T13:01:34.910Z,65.38
2023-01-27T13:04:07.214Z,67.77
2023-01-27T13:06:42.064Z,68.29
2023-01-27T13:09:13.176Z,68.43
2023-01-27T13:11:41.099Z,67.95
2023-01-27T13:14:14.254Z,67.53
2023-01-27T13:16:41.050Z,68.99
2023-01-27T13:19:13.186Z,69.41
2023-01-27T13:21:39.933Z,69.56
2023-01-27T13:24:14.207Z,69.94
2023-01-27T13:26:41.680Z,71.13
2023-01-27T13:29:14.107Z,70.84
2023-01-27T13:31:57.114Z,69.98
2023-01-27T13:34:34.211Z,68.86
2023-01-27T13:37:14.153Z,70.33
2023-01-27T13:39:43.838Z,70.42
2023-01-27T13:42:15.183Z,70.79
2023-01-27T13:44:57.312Z,71.44
2023-01-27T13:47:28.327Z,71.33
2023-01-27T13:50:02.622Z,71.78
2023-01-27T13:52:29.295Z,71.85
2023-01-27T13:54:56.009Z,71.93
2023-01-27T13:57:37.960Z,71.89
2023-01-27T14:00:14.437Z,72.42
2023-01-27T14:03:06.687Z,73.04
2023-01-27T14:06:00.932Z,72.44
2023-01-27T14:08:42.024Z,72.83
2023-01-27T14:11:13.242Z,72.91
2023-01-27T14:13:42.731Z,72.53
2023-01-27T14:16:14.143Z,72.75
2023-01-27T14:18:44.930Z,73.59
2023-01-27T14:21:13.211Z,73.69
2023-01-27T14:24:10.920Z,73.37
2023-01-27T14:29:54.277Z,73.52
2023-01-27T14:32:41.939Z,73.69
2023-01-27T14:35:15.243Z,73.24
2023-01-27T14:38:14.537Z,72.96
2023-01-27T14:41:06.299Z,73.63
2023-01-27T14:43:58.285Z,73.83
2023-01-27T14:46:44.165Z,74.03
2023-01-27T14:49:14.633Z,74.19
2023-01-27T14:51:52.735Z,74.90
2023-01-27T14:54:31.546Z,74.85
2023-01-27T14:57:14.226Z,74.59
2023-01-27T15:00:15.197Z,74.68
2023-01-27T15:02:51.896Z,75.58
2023-01-27T15:05:23.923Z,75.02
2023-01-27T15:08:14.219Z,75.36
2023-01-27T15:11:14.230Z,75.47
2023-01-27T15:14:14.951Z,75.73
2023-01-27T15:17:14.180Z,76.13
2023-01-27T15:19:50.037Z,76.96
2023-01-27T15:22:31.516Z,77.09
2023-01-27T15:25:18.336Z,77.11
2023-01-27T15:27:47.902Z,77.33
2023-01-27T15:31:01.892Z,77.21
2023-01-27T15:33:50.477Z,77.25
2023-01-27T15:36:34.934Z,77.83
2023-01-27T15:41:53.831Z,77.86
2023-01-27T15:44:39.009Z,77.63
2023-01-27T15:47:11.621Z,77.85
2023-01-27T15:49:44.520Z,78.26
2023-01-27T15:52:14.227Z,78.04
2023-01-27T15:54:42.810Z,78.03
2023-01-27T15:57:14.310Z,78.24
2023-01-27T15:59:58.346Z,79.09
2023-01-27T16:02:29.874Z,77.95
2023-01-27T16:05:14.653Z,77.90
2023-01-27T16:07:42.164Z,78.33
2023-01-27T16:10:14.296Z,78.98
2023-01-27T16:12:47.560Z,79.34
2023-01-27T16:15:23.339Z,78.91
2023-01-27T16:18:09.409Z,79.21
2023-01-27T16:20:42.181Z,79.32
2023-01-27T16:23:14.652Z,79.77
2023-01-27T16:25:45.817Z,79.75
2023-01-27T16:28:14.538Z,79.94
2023-01-27T16:31:00.683Z,79.83
2023-01-27T16:33:48.046Z,80.32
2023-01-27T16:36:20.731Z,80.29
2023-01-27T16:38:48.882Z,80.90
2023-01-27T16:41:22.089Z,80.29
2023-01-27T16:43:53.554Z,80.35
2023-01-27T16:46:43.157Z,80.12
2023-01-27T16:49:14.292Z,80.01
2023-01-27T16:51:43.118Z,80.16
2023-01-27T16:54:17.637Z,80.60
2023-01-27T16:56:50.761Z,80.54
2023-01-27T16:59:30.897Z,80.63
2023-01-27T17:02:03.530Z,81.08
2023-01-27T17:04:32.142Z,81.32
2023-01-27T17:07:16.361Z,80.88
2023-01-27T17:09:51.409Z,80.94
2023-01-27T17:12:27.378Z,81.05
2023-01-27T17:14:54.307Z,81.12
2023-01-27T17:17:23.916Z,81.27
2023-01-27T17:20:04.727Z,81.61
2023-01-27T17:22:39.366Z,81.70
2023-01-27T17:25:15.015Z,81.86
2023-01-27T17:27:45.495Z,81.83
2023-01-27T17:30:14.337Z,81.62
2023-01-27T17:32:48.633Z,81.99
2023-01-27T17:35:25.146Z,81.57
2023-01-27T17:37:52.997Z,81.57
2023-01-27T17:40:24.553Z,81.75
2023-01-27T17:42:51.437Z,81.71
2023-01-27T17:45:32.212Z,81.38
2023-01-27T17:48:00.439Z,81.91
2023-01-27T17:50:40.464Z,82.29
2023-01-27T17:55:40.037Z,82.22
2023-01-27T17:58:14.277Z,82.11
2023-01-27T18:00:44.169Z,81.64
2023-01-27T18:03:14.583Z,81.19
2023-01-27T18:05:44.738Z,81.00
2023-01-27T18:08:11.903Z,81.04
2023-01-27T18:10:46.540Z,81.38
2023-01-27T18:13:15.630Z,81.09
2023-01-27T18:15:58.511Z,81.57
2023-01-27T18:18:30.889Z,81.68
2023-01-27T18:21:01.246Z,81.82
2023-01-27T18:23:53.271Z,81.95
2023-01-27T18:26:26.285Z,81.90
2023-01-27T18:28:59.191Z,81.97
2023-01-27T18:31:30.607Z,82.15
2023-01-27T18:34:06.789Z,81.66
2023-01-27T18:36:55.630Z,82.16
2023-01-27T18:39:42.633Z,81.73
2023-01-27T18:42:15.203Z,81.18
2023-01-27T18:44:42.439Z,81.70
2023-01-27T18:47:15.412Z,81.89
2023-01-27T18:49:42.278Z,81.21
2023-01-27T18:52:14.352Z,81.25
2023-01-27T18:54:41.511Z,81.89
2023-01-27T18:57:11.283Z,82.13
2023-01-27T18:59:38.068Z,82.40
2023-01-27T19:04:39.328Z,82.32
2023-01-27T19:09:38.716Z,82.65
2023-01-27T19:12:06.547Z,82.10
2023-01-27T19:14:35.235Z,82.29
2023-01-27T19:17:02.039Z,82.17
2023-01-27T19:19:29.160Z,81.88
2023-01-27T19:21:55.943Z,81.87
2023-01-27T19:24:22.973Z,81.75
2023-01-27T19:26:49.932Z,82.35
2023-01-27T19:29:16.603Z,81.92
2023-01-27T19:31:43.455Z,82.13
2023-01-27T19:34:11.407Z,81.84
2023-01-27T19:36:43.566Z,82.08
2023-01-27T19:39:13.380Z,81.74
2023-01-27T19:41:41.079Z,81.62
2023-01-27T19:44:11.200Z,81.64
2023-01-27T19:46:39.956Z,81.58
2023-01-27T19:49:14.324Z,81.34
2023-01-27T19:51:41.011Z,81.31
2023-01-27T19:54:10.065Z,81.52
2023-01-27T19:56:40.442Z,81.46
2023-01-27T19:59:07.120Z,80.89
2023-01-27T20:01:33.873Z,80.71
2023-01-27T20:04:00.650Z,80.88
2023-01-27T20:06:29.614Z,81.12
2023-01-27T20:08:59.729Z,81.68
2023-01-27T20:11:36.608Z,82.06
2023-01-27T20:14:07.763Z,82.18
2023-01-27T20:16:34.519Z,82.52
2023-01-27T20:19:04.002Z,82.81
2023-01-27T20:21:36.547Z,82.87
2023-01-27T20:24:03.577Z,82.80
2023-01-27T20:26:33.565Z,83.42
2023-01-27T20:29:00.232Z,83.13
2023-01-27T20:31:27.349Z,83.24
2023-01-27T20:33:54.312Z,83.75
2023-01-27T20:36:23.579Z,83.69
2023-01-27T20:38:51.691Z,84.31
2023-01-27T20:41:23.924Z,84.02
2023-01-27T20:44:00.490Z,84.07
2023-01-27T20:46:27.907Z,83.91
2023-01-27T20:49:02.011Z,84.40
2023-01-27T20:51:28.937Z,84.20
2023-01-27T20:53:57.982Z,83.91
2023-01-27T20:56:24.754Z,83.25
2023-01-27T20:58:52.550Z,84.29
2023-01-27T21:01:22.440Z,84.07
2023-01-27T21:03:52.156Z,84.40
2023-01-27T21:06:22.635Z,84.68
2023-01-27T21:08:49.679Z,84.92
2023-01-27T21:11:18.821Z,84.59
2023-01-27T21:13:46.171Z,85.34
2023-01-27T21:16:14.455Z,85.27
2023-01-27T21:18:42.243Z,85.43
2023-01-27T21:21:13.829Z,85.89
2023-01-27T21:23:40.602Z,85.99
2023-01-27T21:26:11.815Z,86.32
2023-01-27T21:28:38.882Z,86.22
2023-01-27T21:31:10.897Z,86.46
2023-01-27T21:33:39.708Z,86.47
2023-01-27T21:36:10.501Z,86.47
2023-01-27T21:38:38.523Z,86.40
2023-01-27T21:41:14.357Z,86.66
2023-01-27T21:43:59.636Z,87.05
2023-01-27T21:46:26.329Z,86.65
2023-01-27T21:48:53.044Z,86.81
2023-01-27T21:51:19.712Z,86.34
2023-01-27T21:53:47.039Z,86.26
2023-01-27T21:56:14.692Z,86.14
2023-01-27T21:58:41.683Z,86.53
2023-01-27T22:01:11.071Z,86.56
2023-01-27T22:03:38.422Z,86.70
2023-01-27T22:06:11.339Z,87.11
2023-01-27T22:08:38.208Z,86.20
2023-01-27T22:11:12.448Z,85.95
2023-01-27T22:13:38.856Z,85.74
2023-01-27T22:16:06.291Z,86.53
2023-01-27T22:18:32.986Z,86.38
2023-01-27T22:21:02.884Z,86.62
2023-01-27T22:23:30.278Z,86.33
2023-01-27T22:25:57.036Z,86.09
2023-01-27T22:28:24.560Z,86.36
2023-01-27T22:30:51.379Z,86.79
2023-01-27T22:33:18.742Z,86.67
2023-01-27T22:35:45.466Z,86.73
2023-01-27T22:38:12.099Z,86.43
2023-01-27T22:40:38.825Z,87.04
2023-01-27T22:43:09.749Z,87.28
2023-01-27T22:45:40.449Z,86.81
2023-01-27T22:48:09.082Z,87.09
2023-01-27T22:50:36.710Z,87.29
2023-01-27T22:53:05.517Z,87.06
2023-01-27T22:55:32.700Z,87.12
2023-01-27T22:57:59.496Z,87.39
2023-01-27T23:00:26.218Z,87.76
2023-01-27T23:02:52.978Z,88.13
2023-01-27T23:05:22.934Z,88.19
2023-01-27T23:07:49.863Z,88.09
2023-01-27T23:10:17.053Z,88.34
2023-01-27T23:12:43.749Z,88.57
2023-01-27T23:15:10.816Z,88.55
2023-01-27T23:17:37.609Z,88.35
2023-01-27T23:20:04.809Z,88.74
2023-01-27T23:22:33.495Z,88.07
2023-01-27T23:25:00.164Z,88.68
2023-01-27T23:27:28.942Z,88.90
2023-01-27T23:29:55.631Z,89.16
2023-01-27T23:32:22.576Z,89.93
2023-01-27T23:34:50.489Z,90.26
2023-01-27T23:37:17.624Z,91.21
2023-01-27T23:39:48.786Z,92.73
2023-01-27T23:42:16.923Z,94.85
2023-01-27T23:44:43.785Z,96.79
2023-01-27T23:49:38.889Z,99.21
2023-01-27T23:52:05.810Z,100.00
2023-01-27T23:54:33.090Z,100.00
2023-01-27T23:57:00.473Z,100.00
2023-01-27T23:59:27.450Z,100.00
